createdAt,value
2018-12-19T00:01:06.542Z,26.60
2018-12-19T00:03:36.459Z,25.75
2018-12-19T00:06:06.364Z,23.52
2018-12-19T00:08:34.294Z,25.57
2018-12-19T00:11:03.257Z,26.15
2018-12-19T00:13:31.426Z,25.37
2018-12-19T00:15:59.525Z,25.27
2018-12-19T00:18:28.363Z,26.57
2018-12-19T00:20:56.192Z,25.17
2018-12-19T00:23:24.071Z,26.60
2018-12-19T00:25:51.959Z,25.72
2018-12-19T00:28:21.855Z,24.33
2018-12-19T00:30:51.696Z,24.95
2018-12-19T00:33:21.597Z,27.32
2018-12-19T00:35:49.575Z,24.45
2018-12-19T00:38:17.439Z,25.77
2018-12-19T00:40:45.400Z,25.67
2018-12-19T00:43:13.311Z,25.08
2018-12-19T00:45:41.136Z,25.15
2018-12-19T00:48:09.123Z,24.75
2018-12-19T00:50:37.003Z,24.43
2018-12-19T00:53:04.831Z,24.65
2018-12-19T00:55:32.869Z,25.05
2018-12-19T00:58:00.759Z,25.57
2018-12-19T01:00:28.752Z,25.67
2018-12-19T01:02:56.833Z,24.18
2018-12-19T01:05:25.280Z,25.35
2018-12-19T01:07:53.094Z,24.95
2018-12-19T01:10:21.108Z,24.87
2018-12-19T01:12:48.951Z,24.92
2018-12-19T01:15:16.930Z,24.63
2018-12-19T01:17:44.784Z,24.35
2018-12-19T01:20:12.855Z,24.85
2018-12-19T01:22:40.723Z,24.75
2018-12-19T01:25:08.608Z,24.57
2018-12-19T01:27:36.501Z,24.57
2018-12-19T01:30:04.600Z,24.98
2018-12-19T01:32:33.207Z,25.07
2018-12-19T01:35:01.290Z,23.95
2018-12-19T01:37:29.203Z,24.47
2018-12-19T01:39:57.065Z,24.65
2018-12-19T01:42:24.907Z,23.98
2018-12-19T01:44:53.011Z,23.63
2018-12-19T01:47:20.837Z,24.67
2018-12-19T01:49:48.745Z,24.90
2018-12-19T01:52:16.672Z,23.90
2018-12-19T01:54:44.572Z,24.40
2018-12-19T01:57:12.377Z,23.73
2018-12-19T01:59:40.227Z,23.12
2018-12-19T02:02:08.094Z,23.47
2018-12-19T02:04:35.914Z,23.57
2018-12-19T02:07:03.963Z,24.27
2018-12-19T02:09:31.839Z,23.80
2018-12-19T02:11:59.870Z,23.65
2018-12-19T02:14:27.806Z,23.83
2018-12-19T02:16:55.677Z,24.07
2018-12-19T02:19:24.524Z,24.70
2018-12-19T02:21:52.383Z,23.80
2018-12-19T02:24:20.341Z,24.30
2018-12-19T02:26:48.352Z,24.47
2018-12-19T02:29:16.265Z,24.12
2018-12-19T02:31:44.211Z,23.65
2018-12-19T02:34:12.262Z,24.95
2018-12-19T02:36:40.157Z,24.18
2018-12-19T02:41:42.329Z,25.43
2018-12-19T02:44:10.298Z,24.07
2018-12-19T02:46:38.102Z,24.45
2018-12-19T02:49:05.943Z,24.57
2018-12-19T02:51:33.851Z,24.95
2018-12-19T02:54:01.698Z,24.40
2018-12-19T02:56:29.588Z,23.77
2018-12-19T02:58:58.270Z,25.45
2018-12-19T03:01:26.217Z,24.95
2018-12-19T03:03:54.057Z,24.87
2018-12-19T03:06:21.871Z,23.63
2018-12-19T03:08:49.756Z,25.08
2018-12-19T03:11:17.660Z,25.10
2018-12-19T03:13:48.336Z,24.75
2018-12-19T03:16:16.163Z,24.57
2018-12-19T03:18:43.979Z,24.02
2018-12-19T03:21:11.888Z,24.40
2018-12-19T03:23:39.749Z,23.87
2018-12-19T03:26:07.684Z,24.10
2018-12-19T03:28:35.529Z,24.92
2018-12-19T03:31:03.403Z,25.05
2018-12-19T03:33:33.289Z,25.75
2018-12-19T03:36:01.107Z,25.68
2018-12-19T03:38:29.055Z,24.47
2018-12-19T03:40:56.863Z,25.63
2018-12-19T03:43:24.719Z,25.62
2018-12-19T03:45:52.531Z,25.50
2018-12-19T03:48:25.939Z,24.92
2018-12-19T03:50:53.807Z,25.65
2018-12-19T03:53:21.772Z,25.02
2018-12-19T03:55:49.721Z,24.72
2018-12-19T03:58:17.553Z,24.25
2018-12-19T04:00:45.429Z,25.12
2018-12-19T04:03:13.368Z,24.87
2018-12-19T04:05:41.379Z,25.88
2018-12-19T04:08:09.217Z,26.00
2018-12-19T04:10:37.090Z,24.37
2018-12-19T04:13:04.940Z,24.65
2018-12-19T04:15:32.881Z,24.95
2018-12-19T04:18:00.964Z,25.23
2018-12-19T04:20:28.856Z,24.52
2018-12-19T04:22:56.728Z,24.67
2018-12-19T04:25:24.570Z,24.77
2018-12-19T04:27:52.619Z,23.42
2018-12-19T04:30:20.462Z,25.12
2018-12-19T04:32:48.691Z,24.85
2018-12-19T04:35:16.552Z,25.23
2018-12-19T04:37:44.363Z,25.12
2018-12-19T04:40:12.441Z,24.80
2018-12-19T04:42:40.247Z,25.07
2018-12-19T04:45:08.164Z,24.82
2018-12-19T04:47:36.070Z,25.85
2018-12-19T04:50:04.082Z,24.98
2018-12-19T04:52:31.973Z,25.25
2018-12-19T04:54:59.908Z,25.85
2018-12-19T04:57:27.804Z,24.67
2018-12-19T04:59:55.603Z,25.68
2018-12-19T05:02:23.540Z,26.07
2018-12-19T05:04:51.389Z,25.43
2018-12-19T05:07:21.072Z,25.30
2018-12-19T05:09:49.230Z,25.57
2018-12-19T05:12:17.143Z,25.00
2018-12-19T05:14:45.350Z,25.02
2018-12-19T05:17:13.244Z,26.07
2018-12-19T05:19:41.256Z,24.32
2018-12-19T05:22:09.214Z,24.77
2018-12-19T05:24:37.057Z,24.60
2018-12-19T05:27:05.075Z,26.00
2018-12-19T05:29:33.035Z,26.17
2018-12-19T05:32:01.505Z,25.95
2018-12-19T05:34:29.324Z,26.42
2018-12-19T05:36:57.175Z,27.48
2018-12-19T05:39:25.119Z,28.07
2018-12-19T05:41:52.979Z,27.27
2018-12-19T05:44:20.988Z,26.20
2018-12-19T05:46:48.797Z,27.98
2018-12-19T05:49:16.668Z,27.95
2018-12-19T05:51:44.556Z,28.10
2018-12-19T05:54:12.436Z,29.15
2018-12-19T05:56:40.412Z,27.42
2018-12-19T05:59:08.231Z,27.52
2018-12-19T06:01:36.098Z,28.47
2018-12-19T06:04:05.998Z,27.98
2018-12-19T06:06:34.659Z,27.87
2018-12-19T06:09:02.837Z,27.87
2018-12-19T06:11:31.770Z,26.82
2018-12-19T06:13:59.627Z,27.82
2018-12-19T06:16:27.552Z,28.12
2018-12-19T06:18:55.450Z,27.77
2018-12-19T06:21:23.305Z,27.48
2018-12-19T06:23:51.430Z,28.47
2018-12-19T06:26:19.417Z,27.73
2018-12-19T06:28:52.912Z,27.95
2018-12-19T06:31:20.810Z,27.37
2018-12-19T06:33:48.935Z,28.47
2018-12-19T06:36:16.900Z,27.30
2018-12-19T06:38:44.749Z,27.90
2018-12-19T06:41:12.721Z,28.75
2018-12-19T06:43:41.411Z,28.35
2018-12-19T06:46:09.279Z,29.32
2018-12-19T06:48:37.314Z,28.67
2018-12-19T06:51:05.142Z,28.70
2018-12-19T06:53:32.991Z,28.50
2018-12-19T06:56:00.875Z,28.17
2018-12-19T06:58:28.829Z,27.80
2018-12-19T07:00:56.793Z,27.77
2018-12-19T07:03:24.677Z,28.10
2018-12-19T07:05:52.602Z,27.73
2018-12-19T07:08:20.547Z,28.50
2018-12-19T07:10:48.519Z,28.65
2018-12-19T07:13:16.394Z,27.32
2018-12-19T07:15:44.251Z,26.75
2018-12-19T07:18:12.399Z,27.58
2018-12-19T07:20:40.328Z,27.52
2018-12-19T07:23:08.189Z,26.57
2018-12-19T07:28:10.595Z,26.77
2018-12-19T07:30:38.539Z,26.02
2018-12-19T07:33:06.539Z,26.55
2018-12-19T07:35:34.400Z,26.57
2018-12-19T07:38:02.310Z,26.68
2018-12-19T07:40:30.172Z,27.32
2018-12-19T07:42:58.055Z,27.40
2018-12-19T07:45:25.984Z,27.35
2018-12-19T07:47:53.814Z,27.48
2018-12-19T07:50:21.671Z,27.30
2018-12-19T07:52:49.789Z,26.63
2018-12-19T07:55:17.778Z,27.15
2018-12-19T07:57:45.694Z,26.45
2018-12-19T08:00:13.728Z,26.17
2018-12-19T08:02:41.600Z,26.85
2018-12-19T08:05:09.436Z,26.87
2018-12-19T08:07:37.312Z,26.70
2018-12-19T08:10:05.840Z,27.40
2018-12-19T08:12:36.174Z,27.87
2018-12-19T08:15:03.711Z,27.20
2018-12-19T08:17:31.511Z,27.03
2018-12-19T08:19:59.390Z,27.30
2018-12-19T08:22:27.274Z,25.88
2018-12-19T08:24:55.106Z,25.80
2018-12-19T08:27:22.965Z,26.00
2018-12-19T08:29:50.827Z,27.67
2018-12-19T08:32:18.665Z,32.48
2018-12-19T08:34:46.515Z,31.27
2018-12-19T08:37:14.409Z,28.62
2018-12-19T08:39:42.429Z,28.62
2018-12-19T08:42:10.448Z,28.50
2018-12-19T08:44:38.532Z,29.35
2018-12-19T08:47:06.492Z,28.92
2018-12-19T08:49:34.493Z,29.00
2018-12-19T08:52:02.429Z,28.80
2018-12-19T08:54:31.299Z,31.07
2018-12-19T08:56:59.282Z,30.65
2018-12-19T08:59:27.198Z,28.02
2018-12-19T09:01:55.003Z,26.90
2018-12-19T09:04:25.950Z,27.45
2018-12-19T09:06:52.839Z,35.45
2018-12-19T09:09:20.766Z,54.13
2018-12-19T09:11:50.041Z,31.17
2018-12-19T09:14:18.086Z,29.37
2018-12-19T09:16:45.960Z,29.25
2018-12-19T09:19:13.813Z,27.27
2018-12-19T09:21:41.651Z,24.40
2018-12-19T09:24:09.731Z,23.87
2018-12-19T09:26:37.558Z,23.92
2018-12-19T09:29:05.530Z,23.20
2018-12-19T09:31:33.433Z,22.32
2018-12-19T09:34:01.939Z,20.25
2018-12-19T09:36:29.768Z,20.25
2018-12-19T09:38:57.623Z,20.33
2018-12-19T09:41:25.548Z,19.12
2018-12-19T09:43:53.403Z,20.20
2018-12-19T09:46:21.303Z,19.55
2018-12-19T09:48:49.252Z,18.55
2018-12-19T09:51:17.130Z,20.08
2018-12-19T09:53:44.975Z,19.77
2018-12-19T09:56:12.875Z,19.27
2018-12-19T09:58:40.904Z,18.35
2018-12-19T10:01:08.791Z,18.67
2018-12-19T10:03:36.667Z,19.27
2018-12-19T10:06:04.597Z,19.17
2018-12-19T10:08:32.535Z,20.20
2018-12-19T10:11:00.377Z,19.12
2018-12-19T10:13:28.260Z,19.53
2018-12-19T10:15:56.091Z,19.73
2018-12-19T10:18:23.912Z,18.13
2018-12-19T10:20:51.801Z,19.00
2018-12-19T10:23:19.655Z,18.73
2018-12-19T10:25:51.785Z,18.98
2018-12-19T10:28:23.992Z,18.48
2018-12-19T10:30:51.943Z,19.00
2018-12-19T10:33:19.794Z,18.48
2018-12-19T10:35:47.681Z,18.75
2018-12-19T10:38:15.541Z,19.52
2018-12-19T10:40:43.499Z,19.45
2018-12-19T10:43:11.315Z,19.00
2018-12-19T10:45:39.115Z,17.67
2018-12-19T10:48:06.982Z,19.03
2018-12-19T10:50:34.935Z,18.12
2018-12-19T10:53:02.884Z,19.90
2018-12-19T10:55:30.696Z,18.23
2018-12-19T10:57:58.568Z,19.30
2018-12-19T11:00:31.867Z,18.65
2018-12-19T11:03:01.511Z,18.37
2018-12-19T11:05:29.390Z,17.90
2018-12-19T11:07:57.289Z,17.95
2018-12-19T11:10:25.329Z,18.48
2018-12-19T11:12:53.163Z,17.83
2018-12-19T11:15:20.971Z,17.82
2018-12-19T11:17:48.887Z,17.70
2018-12-19T11:20:16.970Z,17.62
2018-12-19T11:22:44.800Z,17.55
2018-12-19T11:25:13.329Z,17.92
2018-12-19T11:27:41.815Z,17.43
2018-12-19T11:30:09.886Z,16.90
2018-12-19T11:32:37.775Z,17.67
2018-12-19T11:35:05.623Z,18.25
2018-12-19T11:37:33.459Z,18.30
2018-12-19T11:40:01.295Z,17.80
2018-12-19T11:42:29.261Z,19.15
2018-12-19T11:44:57.096Z,18.05
2018-12-19T11:47:24.972Z,18.25
2018-12-19T11:49:52.843Z,17.05
2018-12-19T11:52:20.662Z,17.23
2018-12-19T11:54:48.540Z,17.30
2018-12-19T11:57:16.394Z,16.87
2018-12-19T11:59:44.238Z,17.48
2018-12-19T12:02:12.187Z,17.63
2018-12-19T12:04:40.068Z,18.05
2018-12-19T12:07:10.131Z,16.45
2018-12-19T12:09:38.007Z,17.07
2018-12-19T12:12:05.819Z,18.12
2018-12-19T12:14:33.713Z,17.67
2018-12-19T12:17:01.537Z,18.60
2018-12-19T12:19:29.372Z,17.40
2018-12-19T12:21:57.236Z,17.45
2018-12-19T12:24:25.132Z,17.23
2018-12-19T12:26:53.068Z,17.57
2018-12-19T12:29:20.896Z,18.10
2018-12-19T12:31:48.793Z,19.77
2018-12-19T12:34:16.620Z,18.02
2018-12-19T12:36:44.561Z,18.67
2018-12-19T12:39:12.448Z,18.40
2018-12-19T12:41:40.343Z,18.60
2018-12-19T12:44:09.310Z,19.70
2018-12-19T12:46:37.141Z,19.15
2018-12-19T12:49:04.989Z,18.48
2018-12-19T12:51:32.839Z,18.45
2018-12-19T12:54:01.504Z,18.40
2018-12-19T12:56:30.502Z,18.50
2018-12-19T12:58:58.420Z,17.32
2018-12-19T13:01:26.363Z,18.03
2018-12-19T13:03:54.229Z,18.27
2018-12-19T13:06:22.072Z,17.90
2018-12-19T13:08:50.035Z,18.45
2018-12-19T13:11:17.894Z,18.98
2018-12-19T13:13:45.769Z,17.75
2018-12-19T13:16:14.315Z,19.35
2018-12-19T13:18:42.296Z,19.10
2018-12-19T13:21:10.159Z,20.27
2018-12-19T13:23:38.044Z,20.60
2018-12-19T13:26:06.323Z,19.47
2018-12-19T13:28:34.198Z,19.77
2018-12-19T13:31:02.076Z,20.17
2018-12-19T13:33:30.068Z,23.23
2018-12-19T13:35:57.854Z,24.43
2018-12-19T13:38:25.644Z,19.62
2018-12-19T13:40:53.535Z,18.48
2018-12-19T13:43:21.391Z,19.83
2018-12-19T13:45:49.397Z,60.08
2018-12-19T13:48:17.207Z,80.13
2018-12-19T13:50:45.031Z,29.40
2018-12-19T13:53:12.915Z,23.63
2018-12-19T13:55:40.775Z,20.68
2018-12-19T13:58:08.678Z,47.27
2018-12-19T14:00:36.576Z,25.72
2018-12-19T14:03:04.416Z,21.00
2018-12-19T14:05:32.394Z,19.77
2018-12-19T14:08:00.241Z,19.50
2018-12-19T14:10:28.137Z,19.15
2018-12-19T14:12:56.160Z,19.73
2018-12-19T14:15:23.986Z,19.63
2018-12-19T14:17:51.944Z,20.75
2018-12-19T14:20:19.797Z,22.35
2018-12-19T14:22:47.651Z,22.95
2018-12-19T14:25:15.538Z,22.32
2018-12-19T14:27:43.418Z,21.52
2018-12-19T14:30:11.272Z,21.55
2018-12-19T14:32:39.160Z,21.30
2018-12-19T14:35:07.129Z,20.50
2018-12-19T14:37:34.995Z,20.15
2018-12-19T14:40:03.137Z,20.43
2018-12-19T14:42:30.991Z,20.43
2018-12-19T14:44:58.900Z,19.60
2018-12-19T14:47:26.747Z,19.73
2018-12-19T14:49:54.631Z,19.67
2018-12-19T14:52:22.545Z,18.12
2018-12-19T14:54:50.355Z,18.82
2018-12-19T14:57:18.264Z,19.67
2018-12-19T14:59:46.151Z,18.35
2018-12-19T15:02:14.037Z,18.45
2018-12-19T15:04:42.056Z,17.40
2018-12-19T15:07:09.924Z,16.80
2018-12-19T15:09:37.744Z,18.23
2018-12-19T15:12:05.662Z,18.45
2018-12-19T15:14:33.511Z,17.60
2018-12-19T15:17:01.468Z,18.73
2018-12-19T15:19:30.542Z,17.85
2018-12-19T15:21:58.356Z,19.07
2018-12-19T15:24:26.215Z,19.48
2018-12-19T15:26:54.140Z,18.32
2018-12-19T15:29:21.984Z,17.65
2018-12-19T15:31:50.981Z,17.85
2018-12-19T15:34:18.899Z,18.50
2018-12-19T15:36:46.726Z,18.50
2018-12-19T15:39:15.001Z,21.37
2018-12-19T15:41:44.188Z,19.87
2018-12-19T15:44:12.406Z,19.98
2018-12-19T15:46:40.275Z,20.48
2018-12-19T15:49:08.161Z,20.30
2018-12-19T15:51:36.063Z,21.93
2018-12-19T15:54:04.694Z,20.82
2018-12-19T15:56:32.725Z,21.80
2018-12-19T15:59:00.623Z,21.12
2018-12-19T16:01:28.835Z,20.80
2018-12-19T16:03:56.821Z,22.27
2018-12-19T16:06:24.690Z,21.35
2018-12-19T16:08:52.601Z,22.67
2018-12-19T16:11:20.429Z,22.23
2018-12-19T16:13:48.361Z,21.97
2018-12-19T16:16:16.328Z,22.20
2018-12-19T16:18:44.280Z,21.82
2018-12-19T16:21:12.262Z,21.90
2018-12-19T16:23:40.150Z,22.65
2018-12-19T16:26:08.239Z,22.05
2018-12-19T16:28:36.263Z,26.33
2018-12-19T16:31:04.184Z,22.70
2018-12-19T16:33:32.085Z,22.35
2018-12-19T16:35:59.979Z,21.10
2018-12-19T16:38:27.868Z,22.87
2018-12-19T16:40:55.826Z,23.60
2018-12-19T16:43:23.737Z,22.87
2018-12-19T16:45:52.374Z,23.80
2018-12-19T16:48:20.512Z,23.67
2018-12-19T16:50:48.323Z,23.73
2018-12-19T16:53:18.348Z,23.98
2018-12-19T16:55:47.078Z,21.87
2018-12-19T16:58:15.566Z,21.12
2018-12-19T17:00:43.544Z,20.02
2018-12-19T17:03:11.428Z,20.95
2018-12-19T17:05:40.420Z,21.20
2018-12-19T17:08:08.626Z,21.87
2018-12-19T17:10:37.499Z,23.18
2018-12-19T17:13:05.516Z,23.40
2018-12-19T17:15:36.777Z,23.70
2018-12-19T17:18:04.987Z,23.67
2018-12-19T17:20:33.388Z,21.90
2018-12-19T17:23:03.456Z,21.77
2018-12-19T17:25:31.616Z,22.67
2018-12-19T17:27:59.353Z,22.60
2018-12-19T17:30:27.191Z,21.90
2018-12-19T17:32:55.008Z,21.62
2018-12-19T17:35:22.876Z,21.42
2018-12-19T17:37:50.672Z,19.73
2018-12-19T17:40:18.526Z,21.17
2018-12-19T17:42:47.329Z,20.60
2018-12-19T17:45:15.207Z,19.80
2018-12-19T17:47:43.059Z,21.45
2018-12-19T17:50:10.955Z,20.27
2018-12-19T17:52:38.854Z,19.85
2018-12-19T17:55:07.919Z,21.12
2018-12-19T17:57:39.659Z,21.30
2018-12-19T18:00:07.647Z,20.90
2018-12-19T18:02:35.468Z,19.73
2018-12-19T18:05:03.468Z,18.70
2018-12-19T18:07:31.351Z,20.70
2018-12-19T18:09:59.200Z,19.00
2018-12-19T18:12:27.087Z,18.20
2018-12-19T18:14:55.066Z,20.27
2018-12-19T18:17:22.876Z,22.02
2018-12-19T18:19:50.885Z,17.23
2018-12-19T18:22:18.739Z,18.05
2018-12-19T18:24:46.614Z,17.42
2018-12-19T18:27:14.540Z,19.25
2018-12-19T18:29:42.525Z,19.40
2018-12-19T18:32:10.405Z,20.15
2018-12-19T18:34:38.507Z,21.27
2018-12-19T18:37:06.439Z,22.47
2018-12-19T18:39:34.229Z,19.05
2018-12-19T18:42:02.079Z,18.17
2018-12-19T18:44:30.733Z,17.12
2018-12-19T18:46:58.642Z,16.73
2018-12-19T18:49:26.485Z,18.07
2018-12-19T18:51:54.475Z,18.23
2018-12-19T18:54:22.447Z,18.98
2018-12-19T18:56:50.335Z,17.32
2018-12-19T18:59:18.275Z,22.25
2018-12-19T19:01:46.528Z,22.30
2018-12-19T19:04:14.425Z,18.15
2018-12-19T19:06:42.228Z,20.08
2018-12-19T19:09:10.095Z,19.70
2018-12-19T19:11:37.938Z,18.85
2018-12-19T19:14:05.981Z,20.80
2018-12-19T19:16:33.813Z,20.62
2018-12-19T19:19:01.769Z,22.95
2018-12-19T19:21:29.755Z,21.02
2018-12-19T19:23:57.682Z,20.23
2018-12-19T19:26:25.538Z,22.53
2018-12-19T19:28:53.846Z,20.15
2018-12-19T19:31:21.900Z,19.45
2018-12-19T19:33:49.894Z,17.70
2018-12-19T19:36:17.839Z,18.73
2018-12-19T19:38:45.653Z,17.35
2018-12-19T19:41:13.533Z,17.35
2018-12-19T19:43:41.391Z,22.40
2018-12-19T19:46:09.323Z,25.52
2018-12-19T19:48:37.374Z,21.07
2018-12-19T19:51:05.163Z,17.77
2018-12-19T19:53:33.112Z,23.12
2018-12-19T19:56:01.051Z,24.12
2018-12-19T19:58:29.120Z,27.77
2018-12-19T20:00:56.965Z,19.65
2018-12-19T20:03:24.819Z,35.27
2018-12-19T20:05:52.773Z,32.78
2018-12-19T20:08:20.611Z,28.50
2018-12-19T20:10:48.451Z,19.67
2018-12-19T20:13:16.531Z,17.67
2018-12-19T20:15:44.398Z,17.25
2018-12-19T20:18:12.814Z,16.02
2018-12-19T20:20:41.676Z,17.00
2018-12-19T20:23:09.509Z,16.02
2018-12-19T20:25:38.573Z,19.50
2018-12-19T20:28:06.464Z,18.10
2018-12-19T20:30:34.317Z,17.37
2018-12-19T20:33:02.154Z,18.17
2018-12-19T20:35:30.037Z,17.35
2018-12-19T20:37:57.879Z,16.37
2018-12-19T20:40:25.795Z,18.00
2018-12-19T20:42:54.235Z,20.82
2018-12-19T20:45:22.111Z,21.55
2018-12-19T20:47:49.901Z,17.35
2018-12-19T20:50:17.775Z,16.42
2018-12-19T20:52:45.601Z,19.73
2018-12-19T20:55:13.519Z,17.73
2018-12-19T20:57:41.437Z,18.20
2018-12-19T21:00:09.606Z,19.95
2018-12-19T21:02:37.464Z,23.65
2018-12-19T21:05:06.540Z,18.52
2018-12-19T21:07:34.472Z,20.02
2018-12-19T21:10:02.332Z,19.42
2018-12-19T21:12:31.346Z,20.00
2018-12-19T21:14:59.284Z,23.02
2018-12-19T21:17:32.677Z,19.35
2018-12-19T21:20:00.515Z,22.82
2018-12-19T21:22:28.612Z,22.62
2018-12-19T21:24:56.489Z,18.75
2018-12-19T21:27:24.346Z,18.12
2018-12-19T21:29:52.254Z,17.60
2018-12-19T21:32:20.221Z,19.87
2018-12-19T21:34:48.130Z,20.92
2018-12-19T21:37:15.932Z,21.80
2018-12-19T21:39:43.944Z,25.97
2018-12-19T21:42:11.812Z,21.95
2018-12-19T21:44:39.743Z,21.33
2018-12-19T21:47:07.709Z,18.37
2018-12-19T21:49:36.003Z,19.57
2018-12-19T21:52:04.104Z,18.32
2018-12-19T21:54:32.276Z,18.95
2018-12-19T21:57:00.247Z,17.98
2018-12-19T21:59:28.291Z,17.75
2018-12-19T22:01:56.194Z,23.35
2018-12-19T22:04:24.575Z,22.05
2018-12-19T22:06:53.791Z,18.70
2018-12-19T22:09:21.694Z,18.32
2018-12-19T22:11:49.621Z,19.57
2018-12-19T22:14:18.244Z,17.85
2018-12-19T22:16:51.589Z,20.95
2018-12-19T22:19:19.640Z,19.53
2018-12-19T22:21:47.753Z,19.25
2018-12-19T22:24:15.884Z,18.98
2018-12-19T22:26:43.956Z,18.55
2018-12-19T22:29:11.890Z,18.45
2018-12-19T22:31:39.897Z,20.37
2018-12-19T22:34:07.716Z,18.82
2018-12-19T22:36:35.745Z,19.60
2018-12-19T22:39:06.330Z,19.20
2018-12-19T22:41:35.719Z,28.62
2018-12-19T22:44:07.835Z,21.25
2018-12-19T22:46:34.086Z,21.25
2018-12-19T22:49:03.277Z,21.57
2018-12-19T22:51:31.373Z,19.67
2018-12-19T22:53:59.357Z,23.10
2018-12-19T22:56:27.190Z,18.10
2018-12-19T22:58:55.572Z,20.27
2018-12-19T23:01:29.160Z,18.17
2018-12-19T23:04:02.340Z,24.47
2018-12-19T23:06:30.231Z,24.92
2018-12-19T23:08:58.373Z,21.33
2018-12-19T23:11:26.385Z,22.20
2018-12-19T23:13:55.250Z,24.98
2018-12-19T23:16:28.955Z,20.65
2018-12-19T23:19:03.142Z,19.02
2018-12-19T23:21:37.901Z,19.82
2018-12-19T23:24:11.600Z,18.80
2018-12-19T23:26:41.419Z,18.73
2018-12-19T23:29:11.370Z,20.12
2018-12-19T23:31:39.586Z,18.42
2018-12-19T23:34:07.432Z,17.70
2018-12-19T23:36:35.376Z,19.25
2018-12-19T23:39:05.322Z,19.82
2018-12-19T23:41:34.823Z,21.10
2018-12-19T23:44:02.788Z,21.00
2018-12-19T23:46:32.743Z,21.73
2018-12-19T23:49:00.635Z,21.30
2018-12-19T23:51:29.700Z,21.05
2018-12-19T23:53:57.696Z,21.48
2018-12-19T23:56:25.663Z,21.27
2018-12-19T23:58:53.540Z,20.82
